createdAt,value
2023-03-05T00:02:20.173Z,81.12
2023-03-05T00:12:27.848Z,81.02
2023-03-05T00:22:36.931Z,81.00
2023-03-05T00:32:42.186Z,80.57
2023-03-05T00:42:49.139Z,80.61
2023-03-05T00:52:56.819Z,80.34
2023-03-05T01:03:04.079Z,80.22
2023-03-05T01:13:11.573Z,80.34
2023-03-05T01:23:18.625Z,80.02
2023-03-05T01:33:25.926Z,79.77
2023-03-05T01:43:33.793Z,79.51
2023-03-05T01:53:41.356Z,79.78
2023-03-05T02:03:49.936Z,79.69
2023-03-05T02:13:57.566Z,79.54
2023-03-05T02:34:42.021Z,79.48
2023-03-05T02:44:49.508Z,79.48
2023-03-05T02:54:56.795Z,79.35
2023-03-05T03:05:03.848Z,79.20
2023-03-05T03:15:12.176Z,79.22
2023-03-05T03:25:19.405Z,79.28
2023-03-05T03:35:26.866Z,79.44
2023-03-05T03:45:34.120Z,79.16
2023-03-05T03:55:39.375Z,78.94
2023-03-05T04:05:46.546Z,78.97
2023-03-05T04:15:53.680Z,78.80
2023-03-05T04:25:59.702Z,78.60
2023-03-05T04:36:07.779Z,78.40
2023-03-05T04:46:15.655Z,78.14
2023-03-05T04:56:22.807Z,78.00
2023-03-05T05:06:29.995Z,78.05
2023-03-05T05:16:37.174Z,77.82
2023-03-05T05:26:44.471Z,77.61
2023-03-05T05:36:51.866Z,77.47
2023-03-05T05:46:58.870Z,77.47
2023-03-05T05:57:06.441Z,77.63
2023-03-05T06:07:12.403Z,77.94
2023-03-05T06:17:29.841Z,78.12
2023-03-05T06:27:38.934Z,78.08
2023-03-05T06:37:46.365Z,78.21
2023-03-05T06:47:53.484Z,78.25
2023-03-05T06:58:00.448Z,78.74
2023-03-05T07:08:07.807Z,78.91
2023-03-05T07:28:21.193Z,78.99
2023-03-05T07:38:28.525Z,79.01
2023-03-05T07:48:36.752Z,78.88
2023-03-05T07:58:44.919Z,78.94
2023-03-05T08:08:52.953Z,79.22
2023-03-05T08:19:01.155Z,79.24
2023-03-05T08:29:09.067Z,79.30
2023-03-05T08:39:16.022Z,79.20
2023-03-05T08:49:23.155Z,79.14
2023-03-05T08:59:30.505Z,79.17
2023-03-05T09:09:38.368Z,79.38
2023-03-05T09:19:45.434Z,79.80
2023-03-05T09:29:52.775Z,80.05
2023-03-05T09:40:00.169Z,80.40
2023-03-05T09:50:13.929Z,81.06
2023-03-05T10:00:24.423Z,81.20
2023-03-05T10:10:41.938Z,81.32
2023-03-05T10:20:56.890Z,81.52
2023-03-05T10:31:19.425Z,81.41
2023-03-05T10:41:26.385Z,80.88
2023-03-05T10:51:32.208Z,80.62
2023-03-05T11:01:39.365Z,80.48
2023-03-05T11:22:07.925Z,80.26
2023-03-05T11:32:24.775Z,79.88
2023-03-05T11:42:32.349Z,79.51
2023-03-05T11:52:38.165Z,78.55
2023-03-05T12:02:54.824Z,77.11
2023-03-05T12:13:06.155Z,77.09
2023-03-05T12:23:14.128Z,76.69
2023-03-05T12:33:31.100Z,76.34
2023-03-05T12:43:38.614Z,76.26
2023-03-05T12:53:44.009Z,77.14
2023-03-05T13:03:55.858Z,77.80
2023-03-05T13:14:04.195Z,78.01
2023-03-05T13:24:16.853Z,78.08
2023-03-05T13:34:37.458Z,77.94
2023-03-05T13:44:55.033Z,77.27
2023-03-05T13:55:03.891Z,77.07
2023-03-05T14:05:15.265Z,77.09
2023-03-05T14:15:27.850Z,77.14
2023-03-05T14:25:40.986Z,77.23
2023-03-05T14:35:51.644Z,77.11
2023-03-05T14:45:58.903Z,77.11
2023-03-05T14:56:07.635Z,77.34
2023-03-05T15:16:23.494Z,77.98
2023-03-05T15:26:30.677Z,78.41
2023-03-05T15:36:37.943Z,79.00
2023-03-05T15:46:45.773Z,79.23
2023-03-05T15:56:53.315Z,79.56
2023-03-05T16:07:04.336Z,79.76
2023-03-05T16:17:12.831Z,79.94
2023-03-05T16:27:20.196Z,80.14
2023-03-05T16:37:28.221Z,80.30
2023-03-05T16:47:36.292Z,80.34
2023-03-05T16:57:43.362Z,80.49
2023-03-05T17:07:50.601Z,80.57
2023-03-05T17:17:58.125Z,80.74
2023-03-05T17:28:05.384Z,80.68
2023-03-05T17:38:10.447Z,80.70
2023-03-05T17:48:17.894Z,80.79
2023-03-05T18:08:30.179Z,80.84
2023-03-05T18:18:37.872Z,80.99
2023-03-05T18:28:45.091Z,80.82
2023-03-05T18:38:52.260Z,80.95
2023-03-05T18:48:59.461Z,81.07
2023-03-05T18:59:06.655Z,81.12
2023-03-05T19:09:17.332Z,81.24
2023-03-05T19:19:25.603Z,81.33
2023-03-05T19:29:33.258Z,81.56
2023-03-05T19:39:39.990Z,81.50
2023-03-05T19:49:47.814Z,81.56
2023-03-05T19:59:53.198Z,81.64
2023-03-05T20:10:00.983Z,81.61
2023-03-05T20:20:10.336Z,81.89
2023-03-05T20:30:18.035Z,81.86
2023-03-05T20:40:25.207Z,81.79
2023-03-05T20:50:33.704Z,82.01
2023-03-05T21:00:42.450Z,82.02
2023-03-05T21:10:50.113Z,81.96
2023-03-05T21:20:57.352Z,82.09
2023-03-05T21:31:08.567Z,82.54
2023-03-05T21:41:18.415Z,82.48
2023-03-05T21:51:24.867Z,82.42
2023-03-05T22:01:32.410Z,82.38
2023-03-05T22:11:42.000Z,82.41
2023-03-05T22:21:47.447Z,82.55
2023-03-05T22:31:57.161Z,82.47
2023-03-05T22:52:10.671Z,82.63
2023-03-05T23:02:18.018Z,82.79
2023-03-05T23:12:26.773Z,82.88
2023-03-05T23:22:34.600Z,82.90
2023-03-05T23:32:41.782Z,83.00
2023-03-05T23:42:48.952Z,82.99
2023-03-05T23:52:56.853Z,83.06
